sensor_id;sensor_type;location;lat;lon;timestamp;pressure;altitude;pressure_sealevel;temperature;humidity
40872;BME280;26591;43.264;26.940;2023-03-26T00:00:56;98117.66;;;15.27;60.08
40872;BME280;26591;43.264;26.940;2023-03-26T00:03:25;98125.06;;;15.25;60.09
40872;BME280;26591;43.264;26.940;2023-03-26T00:08:36;98139.47;;;15.17;60.55
40872;BME280;26591;43.264;26.940;2023-03-26T00:11:03;98133.31;;;15.17;60.70
40872;BME280;26591;43.264;26.940;2023-03-26T00:13:29;98125.00;;;14.81;61.97
40872;BME280;26591;43.264;26.940;2023-03-26T00:15:56;98130.03;;;14.96;61.07
40872;BME280;26591;43.264;26.940;2023-03-26T00:18:22;98127.13;;;14.65;61.90
40872;BME280;26591;43.264;26.940;2023-03-26T00:21:00;98118.66;;;14.43;62.58
40872;BME280;26591;43.264;26.940;2023-03-26T00:23:27;98109.47;;;14.39;62.40
40872;BME280;26591;43.264;26.940;2023-03-26T00:25:54;98112.63;;;14.23;62.87
40872;BME280;26591;43.264;26.940;2023-03-26T00:28:21;98118.38;;;14.19;62.72
40872;BME280;26591;43.264;26.940;2023-03-26T00:30:48;98109.25;;;14.41;62.20
40872;BME280;26591;43.264;26.940;2023-03-26T00:33:14;98105.31;;;14.11;63.53
40872;BME280;26591;43.264;26.940;2023-03-26T00:35:42;98105.34;;;13.98;63.63
40872;BME280;26591;43.264;26.940;2023-03-26T00:38:14;98117.78;;;14.11;63.48
40872;BME280;26591;43.264;26.940;2023-03-26T00:40:39;98111.28;;;14.00;63.81
40872;BME280;26591;43.264;26.940;2023-03-26T00:43:10;98107.03;;;13.85;63.78
40872;BME280;26591;43.264;26.940;2023-03-26T00:45:46;98104.63;;;13.77;64.16
40872;BME280;26591;43.264;26.940;2023-03-26T00:48:12;98089.53;;;13.57;64.75
40872;BME280;26591;43.264;26.940;2023-03-26T00:50:38;98100.59;;;13.48;65.08
40872;BME280;26591;43.264;26.940;2023-03-26T00:53:04;98099.78;;;13.54;64.93
40872;BME280;26591;43.264;26.940;2023-03-26T00:55:29;98097.13;;;13.47;65.61
40872;BME280;26591;43.264;26.940;2023-03-26T00:57:55;98099.38;;;13.50;65.02
40872;BME280;26591;43.264;26.940;2023-03-26T01:00:28;98087.91;;;13.56;64.87
40872;BME280;26591;43.264;26.940;2023-03-26T01:02:57;98086.28;;;13.49;65.54
40872;BME280;26591;43.264;26.940;2023-03-26T01:08:28;98090.59;;;13.36;65.48
40872;BME280;26591;43.264;26.940;2023-03-26T01:11:07;98091.84;;;13.27;65.92
40872;BME280;26591;43.264;26.940;2023-03-26T01:13:42;98080.59;;;13.25;66.09
40872;BME280;26591;43.264;26.940;2023-03-26T01:16:17;98081.84;;;13.22;65.89
40872;BME280;26591;43.264;26.940;2023-03-26T01:18:44;98067.75;;;13.08;66.32
40872;BME280;26591;43.264;26.940;2023-03-26T01:21:10;98076.50;;;13.09;66.03
40872;BME280;26591;43.264;26.940;2023-03-26T01:23:47;98075.72;;;13.02;66.24
40872;BME280;26591;43.264;26.940;2023-03-26T01:29:24;98077.13;;;12.97;67.12
40872;BME280;26591;43.264;26.940;2023-03-26T01:40:33;98079.41;;;12.94;67.21
40872;BME280;26591;43.264;26.940;2023-03-26T01:45:25;98079.00;;;12.90;67.76
40872;BME280;26591;43.264;26.940;2023-03-26T01:47:52;98069.78;;;12.86;67.86
40872;BME280;26591;43.264;26.940;2023-03-26T01:50:19;98080.19;;;12.81;67.94
40872;BME280;26591;43.264;26.940;2023-03-26T01:52:44;98072.66;;;12.85;67.53
40872;BME280;26591;43.264;26.940;2023-03-26T01:55:10;98082.84;;;12.74;68.12
40872;BME280;26591;43.264;26.940;2023-03-26T02:01:01;98087.56;;;12.79;67.36
40872;BME280;26591;43.264;26.940;2023-03-26T02:03:37;98074.88;;;12.67;68.15
40872;BME280;26591;43.264;26.940;2023-03-26T02:06:24;98086.34;;;12.75;67.96
40872;BME280;26591;43.264;26.940;2023-03-26T02:09:02;98069.38;;;12.56;67.98
40872;BME280;26591;43.264;26.940;2023-03-26T02:11:28;98083.28;;;12.64;68.13
40872;BME280;26591;43.264;26.940;2023-03-26T02:13:54;98105.72;;;12.69;68.26
40872;BME280;26591;43.264;26.940;2023-03-26T02:16:20;98114.72;;;12.67;67.56
40872;BME280;26591;43.264;26.940;2023-03-26T02:18:47;98116.09;;;12.50;68.65
40872;BME280;26591;43.264;26.940;2023-03-26T02:21:21;98107.13;;;12.58;68.64
40872;BME280;26591;43.264;26.940;2023-03-26T02:23:49;98093.84;;;12.38;69.15
40872;BME280;26591;43.264;26.940;2023-03-26T02:26:22;98101.81;;;12.58;69.05
40872;BME280;26591;43.264;26.940;2023-03-26T02:28:48;98111.25;;;12.67;68.69
40872;BME280;26591;43.264;26.940;2023-03-26T02:31:13;98103.66;;;12.50;68.99
40872;BME280;26591;43.264;26.940;2023-03-26T02:33:41;98101.44;;;12.61;68.89
40872;BME280;26591;43.264;26.940;2023-03-26T02:36:09;98112.84;;;12.41;69.64
40872;BME280;26591;43.264;26.940;2023-03-26T02:38:38;98124.28;;;12.48;69.54
40872;BME280;26591;43.264;26.940;2023-03-26T02:41:04;98133.00;;;12.35;69.84
40872;BME280;26591;43.264;26.940;2023-03-26T02:43:30;98123.59;;;12.19;70.98
40872;BME280;26591;43.264;26.940;2023-03-26T02:45:56;98130.16;;;12.30;70.61
40872;BME280;26591;43.264;26.940;2023-03-26T02:48:21;98135.06;;;12.27;71.33
40872;BME280;26591;43.264;26.940;2023-03-26T02:50:47;98133.97;;;12.21;72.01
40872;BME280;26591;43.264;26.940;2023-03-26T02:53:17;98121.31;;;12.10;72.44
40872;BME280;26591;43.264;26.940;2023-03-26T02:55:43;98136.81;;;12.13;72.61
40872;BME280;26591;43.264;26.940;2023-03-26T02:58:08;98143.53;;;12.09;72.41
40872;BME280;26591;43.264;26.940;2023-03-26T03:00:34;98142.34;;;12.11;72.61
40872;BME280;26591;43.264;26.940;2023-03-26T03:03:00;98165.38;;;12.11;72.94
40872;BME280;26591;43.264;26.940;2023-03-26T03:05:30;98155.47;;;11.91;73.96
40872;BME280;26591;43.264;26.940;2023-03-26T03:07:57;98171.28;;;11.78;74.94
40872;BME280;26591;43.264;26.940;2023-03-26T03:10:26;98149.38;;;11.62;75.67
40872;BME280;26591;43.264;26.940;2023-03-26T03:12:52;98182.44;;;11.66;75.75
40872;BME280;26591;43.264;26.940;2023-03-26T03:15:19;98183.41;;;11.58;76.76
40872;BME280;26591;43.264;26.940;2023-03-26T03:17:45;98199.59;;;11.70;76.73
40872;BME280;26591;43.264;26.940;2023-03-26T03:20:10;98183.69;;;11.70;76.37
40872;BME280;26591;43.264;26.940;2023-03-26T03:22:36;98185.03;;;11.88;76.24
40872;BME280;26591;43.264;26.940;2023-03-26T03:25:03;98177.66;;;11.83;76.34
40872;BME280;26591;43.264;26.940;2023-03-26T03:27:29;98180.97;;;11.57;77.94
40872;BME280;26591;43.264;26.940;2023-03-26T03:29:55;98179.69;;;11.53;78.13
40872;BME280;26591;43.264;26.940;2023-03-26T03:32:21;98184.63;;;11.56;78.12
40872;BME280;26591;43.264;26.940;2023-03-26T03:34:48;98182.59;;;11.58;78.71
40872;BME280;26591;43.264;26.940;2023-03-26T03:37:17;98186.31;;;11.64;78.41
40872;BME280;26591;43.264;26.940;2023-03-26T03:39:43;98168.56;;;11.64;78.12
40872;BME280;26591;43.264;26.940;2023-03-26T03:42:09;98177.47;;;11.56;78.91
40872;BME280;26591;43.264;26.940;2023-03-26T03:44:35;98169.59;;;11.70;78.55
40872;BME280;26591;43.264;26.940;2023-03-26T03:47:00;98166.81;;;11.78;77.78
40872;BME280;26591;43.264;26.940;2023-03-26T03:49:26;98161.22;;;11.66;79.08
40872;BME280;26591;43.264;26.940;2023-03-26T03:51:51;98179.66;;;11.46;80.04
40872;BME280;26591;43.264;26.940;2023-03-26T03:54:17;98188.38;;;11.40;80.25
40872;BME280;26591;43.264;26.940;2023-03-26T03:56:42;98191.91;;;11.47;80.44
40872;BME280;26591;43.264;26.940;2023-03-26T03:59:37;98203.81;;;11.58;80.13
40872;BME280;26591;43.264;26.940;2023-03-26T04:02:03;98204.72;;;11.79;79.18
40872;BME280;26591;43.264;26.940;2023-03-26T04:04:29;98212.28;;;11.47;80.72
40872;BME280;26591;43.264;26.940;2023-03-26T04:06:54;98207.22;;;11.52;80.84
40872;BME280;26591;43.264;26.940;2023-03-26T04:09:20;98212.16;;;11.33;80.98
40872;BME280;26591;43.264;26.940;2023-03-26T04:11:45;98205.94;;;11.19;81.93
40872;BME280;26591;43.264;26.940;2023-03-26T04:14:11;98214.56;;;11.28;81.41
40872;BME280;26591;43.264;26.940;2023-03-26T04:16:36;98205.31;;;11.17;81.46
40872;BME280;26591;43.264;26.940;2023-03-26T04:19:02;98211.28;;;11.26;81.51
40872;BME280;26591;43.264;26.940;2023-03-26T04:21:28;98217.34;;;11.41;80.11
40872;BME280;26591;43.264;26.940;2023-03-26T04:23:58;98210.72;;;11.30;80.23
40872;BME280;26591;43.264;26.940;2023-03-26T04:26:25;98211.03;;;11.21;80.74
40872;BME280;26591;43.264;26.940;2023-03-26T04:28:58;98217.81;;;11.23;80.40
40872;BME280;26591;43.264;26.940;2023-03-26T04:31:25;98222.53;;;11.28;80.43
40872;BME280;26591;43.264;26.940;2023-03-26T04:33:58;98225.53;;;11.25;80.27
40872;BME280;26591;43.264;26.940;2023-03-26T04:36:26;98212.66;;;11.43;79.65
40872;BME280;26591;43.264;26.940;2023-03-26T04:38:52;98233.41;;;11.40;79.18
40872;BME280;26591;43.264;26.940;2023-03-26T04:41:19;98255.75;;;11.30;79.07
40872;BME280;26591;43.264;26.940;2023-03-26T04:43:46;98242.75;;;11.36;78.96
40872;BME280;26591;43.264;26.940;2023-03-26T04:46:18;98249.13;;;11.41;78.07
40872;BME280;26591;43.264;26.940;2023-03-26T04:48:49;98247.09;;;11.22;78.47
40872;BME280;26591;43.264;26.940;2023-03-26T04:51:16;98243.59;;;11.14;78.42
40872;BME280;26591;43.264;26.940;2023-03-26T04:53:55;98255.56;;;11.32;78.01
40872;BME280;26591;43.264;26.940;2023-03-26T04:57:02;98245.31;;;11.51;77.02
40872;BME280;26591;43.264;26.940;2023-03-26T04:59:30;98242.13;;;11.34;77.72
40872;BME280;26591;43.264;26.940;2023-03-26T05:02:00;98237.63;;;11.56;76.83
40872;BME280;26591;43.264;26.940;2023-03-26T05:04:27;98236.22;;;11.60;76.62
40872;BME280;26591;43.264;26.940;2023-03-26T05:06:56;98225.06;;;11.65;75.79
40872;BME280;26591;43.264;26.940;2023-03-26T05:09:25;98243.88;;;11.48;76.61
40872;BME280;26591;43.264;26.940;2023-03-26T05:11:51;98231.31;;;11.57;76.31
40872;BME280;26591;43.264;26.940;2023-03-26T05:14:17;98234.00;;;11.64;75.92
40872;BME280;26591;43.264;26.940;2023-03-26T05:16:45;98239.06;;;11.87;74.85
40872;BME280;26591;43.264;26.940;2023-03-26T05:19:12;98231.88;;;11.81;75.01
40872;BME280;26591;43.264;26.940;2023-03-26T05:21:37;98236.50;;;11.72;75.00
40872;BME280;26591;43.264;26.940;2023-03-26T05:24:03;98239.94;;;11.66;74.79
40872;BME280;26591;43.264;26.940;2023-03-26T05:26:31;98227.75;;;11.71;74.46
40872;BME280;26591;43.264;26.940;2023-03-26T05:28:57;98217.09;;;11.65;74.24
40872;BME280;26591;43.264;26.940;2023-03-26T05:31:23;98221.81;;;11.69;73.64
40872;BME280;26591;43.264;26.940;2023-03-26T05:33:48;98216.47;;;11.63;73.34
40872;BME280;26591;43.264;26.940;2023-03-26T05:36:14;98207.50;;;11.64;74.04
40872;BME280;26591;43.264;26.940;2023-03-26T05:38:41;98208.50;;;11.91;72.68
40872;BME280;26591;43.264;26.940;2023-03-26T05:41:11;98211.00;;;12.34;71.71
40872;BME280;26591;43.264;26.940;2023-03-26T05:43:37;98211.25;;;12.53;70.15
40872;BME280;26591;43.264;26.940;2023-03-26T05:46:02;98193.34;;;12.82;68.99
40872;BME280;26591;43.264;26.940;2023-03-26T05:48:28;98207.06;;;12.79;67.79
40872;BME280;26591;43.264;26.940;2023-03-26T05:50:55;98210.50;;;12.73;67.96
40872;BME280;26591;43.264;26.940;2023-03-26T05:53:21;98213.66;;;12.34;68.77
40872;BME280;26591;43.264;26.940;2023-03-26T05:55:48;98227.69;;;12.28;69.02
40872;BME280;26591;43.264;26.940;2023-03-26T05:58:15;98212.69;;;12.07;69.00
40872;BME280;26591;43.264;26.940;2023-03-26T06:00:41;98218.88;;;12.21;68.84
40872;BME280;26591;43.264;26.940;2023-03-26T06:03:07;98226.41;;;12.17;68.66
40872;BME280;26591;43.264;26.940;2023-03-26T06:05:37;98207.78;;;12.04;68.70
40872;BME280;26591;43.264;26.940;2023-03-26T06:08:04;98245.50;;;11.99;68.93
40872;BME280;26591;43.264;26.940;2023-03-26T06:10:30;98251.38;;;12.36;68.82
40872;BME280;26591;43.264;26.940;2023-03-26T06:12:58;98246.59;;;12.60;67.09
40872;BME280;26591;43.264;26.940;2023-03-26T06:15:23;98255.25;;;12.82;66.82
40872;BME280;26591;43.264;26.940;2023-03-26T06:17:49;98245.28;;;12.91;66.27
40872;BME280;26591;43.264;26.940;2023-03-26T06:20:15;98254.09;;;13.25;64.89
40872;BME280;26591;43.264;26.940;2023-03-26T06:22:40;98261.94;;;13.61;63.56
40872;BME280;26591;43.264;26.940;2023-03-26T06:25:06;98269.63;;;14.29;62.42
40872;BME280;26591;43.264;26.940;2023-03-26T06:27:32;98261.59;;;14.36;60.79
40872;BME280;26591;43.264;26.940;2023-03-26T06:29:57;98270.63;;;14.35;61.01
40872;BME280;26591;43.264;26.940;2023-03-26T06:33:00;98276.56;;;14.37;60.04
40872;BME280;26591;43.264;26.940;2023-03-26T06:35:26;98264.81;;;14.58;60.15
40872;BME280;26591;43.264;26.940;2023-03-26T06:37:54;98265.81;;;14.64;58.92
40872;BME280;26591;43.264;26.940;2023-03-26T06:40:19;98273.22;;;14.55;59.19
40872;BME280;26591;43.264;26.940;2023-03-26T06:42:45;98269.22;;;14.32;59.46
40872;BME280;26591;43.264;26.940;2023-03-26T06:45:11;98259.38;;;14.26;59.96
40872;BME280;26591;43.264;26.940;2023-03-26T06:47:36;98270.63;;;14.35;59.57
40872;BME280;26591;43.264;26.940;2023-03-26T06:50:02;98267.97;;;14.35;59.78
40872;BME280;26591;43.264;26.940;2023-03-26T06:52:27;98261.41;;;14.31;59.64
40872;BME280;26591;43.264;26.940;2023-03-26T06:54:54;98253.84;;;14.28;60.17
40872;BME280;26591;43.264;26.940;2023-03-26T06:57:19;98253.97;;;13.61;60.96
40872;BME280;26591;43.264;26.940;2023-03-26T06:59:45;98254.91;;;13.12;62.38
40872;BME280;26591;43.264;26.940;2023-03-26T07:02:11;98250.22;;;13.08;62.68
40872;BME280;26591;43.264;26.940;2023-03-26T07:04:36;98253.41;;;12.83;63.37
40872;BME280;26591;43.264;26.940;2023-03-26T07:07:02;98254.34;;;12.62;64.17
40872;BME280;26591;43.264;26.940;2023-03-26T07:09:29;98264.31;;;12.46;64.86
40872;BME280;26591;43.264;26.940;2023-03-26T07:11:55;98255.06;;;12.35;65.05
40872;BME280;26591;43.264;26.940;2023-03-26T07:14:21;98254.91;;;12.44;64.82
40872;BME280;26591;43.264;26.940;2023-03-26T07:16:49;98263.69;;;12.44;64.35
40872;BME280;26591;43.264;26.940;2023-03-26T07:19:14;98259.81;;;12.40;65.14
40872;BME280;26591;43.264;26.940;2023-03-26T07:21:40;98242.84;;;12.34;64.71
40872;BME280;26591;43.264;26.940;2023-03-26T07:24:09;98240.25;;;12.55;64.64
40872;BME280;26591;43.264;26.940;2023-03-26T07:26:46;98255.72;;;12.44;64.35
40872;BME280;26591;43.264;26.940;2023-03-26T07:29:35;98249.00;;;12.48;64.28
40872;BME280;26591;43.264;26.940;2023-03-26T07:34:52;98255.63;;;12.73;63.91
40872;BME280;26591;43.264;26.940;2023-03-26T07:47:58;98241.22;;;12.40;64.41
40872;BME280;26591;43.264;26.940;2023-03-26T07:50:24;98248.38;;;12.46;63.98
40872;BME280;26591;43.264;26.940;2023-03-26T07:52:51;98260.91;;;12.66;63.09
40872;BME280;26591;43.264;26.940;2023-03-26T07:55:17;98259.56;;;12.90;62.24
40872;BME280;26591;43.264;26.940;2023-03-26T07:57:52;98273.72;;;13.24;61.32
40872;BME280;26591;43.264;26.940;2023-03-26T08:00:39;98285.06;;;13.60;60.33
40872;BME280;26591;43.264;26.940;2023-03-26T08:03:13;98278.09;;;13.66;59.83
40872;BME280;26591;43.264;26.940;2023-03-26T08:06:09;98269.91;;;13.40;60.09
40872;BME280;26591;43.264;26.940;2023-03-26T08:14:04;98290.97;;;13.69;59.46
40872;BME280;26591;43.264;26.940;2023-03-26T08:16:42;98308.53;;;14.24;57.81
40872;BME280;26591;43.264;26.940;2023-03-26T08:19:35;98294.59;;;14.22;57.40
40872;BME280;26591;43.264;26.940;2023-03-26T08:22:10;98299.91;;;14.28;56.94
40872;BME280;26591;43.264;26.940;2023-03-26T08:27:38;98296.88;;;14.11;57.08
40872;BME280;26591;43.264;26.940;2023-03-26T08:32:36;98310.25;;;14.57;56.27
40872;BME280;26591;43.264;26.940;2023-03-26T08:35:01;98300.03;;;14.60;55.59
40872;BME280;26591;43.264;26.940;2023-03-26T08:37:29;98300.50;;;14.44;56.41
40872;BME280;26591;43.264;26.940;2023-03-26T08:39:54;98307.59;;;14.57;56.47
40872;BME280;26591;43.264;26.940;2023-03-26T08:42:49;98314.41;;;14.53;56.36
40872;BME280;26591;43.264;26.940;2023-03-26T08:45:42;98306.03;;;15.33;54.09
40872;BME280;26591;43.264;26.940;2023-03-26T08:51:00;98314.59;;;16.43;52.28
40872;BME280;26591;43.264;26.940;2023-03-26T08:56:10;98294.84;;;16.26;51.30
40872;BME280;26591;43.264;26.940;2023-03-26T09:13:18;98297.88;;;14.96;54.05
40872;BME280;26591;43.264;26.940;2023-03-26T09:16:27;98306.41;;;15.12;53.26
40872;BME280;26591;43.264;26.940;2023-03-26T09:25:04;98296.41;;;16.15;51.37
40872;BME280;26591;43.264;26.940;2023-03-26T09:30:36;98321.44;;;16.39;50.32
40872;BME280;26591;43.264;26.940;2023-03-26T09:44:39;98319.34;;;16.97;48.53
40872;BME280;26591;43.264;26.940;2023-03-26T10:04:04;98292.88;;;18.04;45.59
40872;BME280;26591;43.264;26.940;2023-03-26T10:07:32;98302.13;;;18.61;44.65
40872;BME280;26591;43.264;26.940;2023-03-26T10:32:41;98275.06;;;19.03;41.47
40872;BME280;26591;43.264;26.940;2023-03-26T10:49:32;98267.03;;;18.91;40.35
40872;BME280;26591;43.264;26.940;2023-03-26T10:52:12;98267.19;;;18.85;41.00
40872;BME280;26591;43.264;26.940;2023-03-26T11:00:24;98267.91;;;19.38;40.20
40872;BME280;26591;43.264;26.940;2023-03-26T11:17:36;98266.41;;;17.72;41.57
40872;BME280;26591;43.264;26.940;2023-03-26T11:20:43;98259.97;;;17.37;42.58
40872;BME280;26591;43.264;26.940;2023-03-26T11:23:33;98263.63;;;17.24;42.00
40872;BME280;26591;43.264;26.940;2023-03-26T11:26:11;98266.31;;;17.13;42.82
40872;BME280;26591;43.264;26.940;2023-03-26T11:37:39;98250.09;;;18.45;38.54
40872;BME280;26591;43.264;26.940;2023-03-26T11:40:33;98258.34;;;18.43;38.27
40872;BME280;26591;43.264;26.940;2023-03-26T11:43:05;98247.31;;;18.28;38.08
40872;BME280;26591;43.264;26.940;2023-03-26T11:45:35;98240.97;;;18.87;37.70
40872;BME280;26591;43.264;26.940;2023-03-26T11:48:39;98253.31;;;18.47;38.71
40872;BME280;26591;43.264;26.940;2023-03-26T11:51:28;98257.09;;;18.10;38.60
40872;BME280;26591;43.264;26.940;2023-03-26T11:53:55;98253.44;;;18.40;38.19
40872;BME280;26591;43.264;26.940;2023-03-26T11:59:18;98252.69;;;18.69;38.25
40872;BME280;26591;43.264;26.940;2023-03-26T12:01:51;98246.72;;;19.08;36.98
40872;BME280;26591;43.264;26.940;2023-03-26T12:04:40;98246.25;;;19.11;37.30
40872;BME280;26591;43.264;26.940;2023-03-26T12:07:29;98236.34;;;19.11;36.62
40872;BME280;26591;43.264;26.940;2023-03-26T12:10:00;98253.94;;;19.53;35.79
40872;BME280;26591;43.264;26.940;2023-03-26T12:12:32;98242.78;;;19.44;34.92
40872;BME280;26591;43.264;26.940;2023-03-26T12:15:01;98233.06;;;19.09;35.27
40872;BME280;26591;43.264;26.940;2023-03-26T12:17:33;98242.13;;;18.91;35.67
40872;BME280;26591;43.264;26.940;2023-03-26T12:19:59;98243.91;;;18.44;36.34
40872;BME280;26591;43.264;26.940;2023-03-26T12:22:32;98228.38;;;18.58;36.92
40872;BME280;26591;43.264;26.940;2023-03-26T12:25:20;98231.28;;;18.86;36.09
40872;BME280;26591;43.264;26.940;2023-03-26T12:30:27;98234.72;;;19.27;36.64
40872;BME280;26591;43.264;26.940;2023-03-26T12:32:57;98229.34;;;19.27;35.61
40872;BME280;26591;43.264;26.940;2023-03-26T12:35:27;98219.81;;;19.02;35.98
40872;BME280;26591;43.264;26.940;2023-03-26T12:38:13;98209.69;;;18.64;36.59
40872;BME280;26591;43.264;26.940;2023-03-26T12:40:39;98212.06;;;18.60;36.88
40872;BME280;26591;43.264;26.940;2023-03-26T12:43:22;98215.97;;;18.98;35.82
40872;BME280;26591;43.264;26.940;2023-03-26T12:45:55;98208.31;;;19.19;36.36
40872;BME280;26591;43.264;26.940;2023-03-26T12:48:23;98206.94;;;19.16;35.71
40872;BME280;26591;43.264;26.940;2023-03-26T12:56:38;98205.69;;;18.78;35.31
40872;BME280;26591;43.264;26.940;2023-03-26T12:59:16;98203.41;;;19.16;35.26
40872;BME280;26591;43.264;26.940;2023-03-26T13:07:02;98194.56;;;19.49;34.78
40872;BME280;26591;43.264;26.940;2023-03-26T13:17:39;98165.16;;;19.38;33.87
40872;BME280;26591;43.264;26.940;2023-03-26T13:31:33;98186.06;;;18.89;34.74
40872;BME280;26591;43.264;26.940;2023-03-26T13:34:49;98178.66;;;18.80;35.01
40872;BME280;26591;43.264;26.940;2023-03-26T13:37:12;98175.78;;;18.98;34.67
40872;BME280;26591;43.264;26.940;2023-03-26T13:47:48;98170.66;;;19.14;33.64
40872;BME280;26591;43.264;26.940;2023-03-26T13:50:37;98174.91;;;19.10;33.80
40872;BME280;26591;43.264;26.940;2023-03-26T13:53:09;98182.38;;;19.25;33.32
40872;BME280;26591;43.264;26.940;2023-03-26T13:55:41;98175.06;;;19.37;33.44
40872;BME280;26591;43.264;26.940;2023-03-26T14:00:57;98187.56;;;19.65;33.90
40872;BME280;26591;43.264;26.940;2023-03-26T14:06:03;98196.34;;;19.44;33.13
40872;BME280;26591;43.264;26.940;2023-03-26T14:08:38;98187.06;;;19.51;33.09
40872;BME280;26591;43.264;26.940;2023-03-26T14:11:13;98184.66;;;19.50;32.48
40872;BME280;26591;43.264;26.940;2023-03-26T14:13:55;98194.38;;;19.56;32.43
40872;BME280;26591;43.264;26.940;2023-03-26T14:16:26;98192.09;;;19.65;32.16
40872;BME280;26591;43.264;26.940;2023-03-26T14:19:02;98190.41;;;19.42;32.00
40872;BME280;26591;43.264;26.940;2023-03-26T14:21:47;98188.84;;;19.12;32.00
40872;BME280;26591;43.264;26.940;2023-03-26T14:35:41;98187.66;;;18.90;33.36
40872;BME280;26591;43.264;26.940;2023-03-26T14:41:08;98189.59;;;18.78;33.43
40872;BME280;26591;43.264;26.940;2023-03-26T14:47:08;98194.09;;;18.60;34.41
40872;BME280;26591;43.264;26.940;2023-03-26T14:52:53;98198.78;;;18.12;35.49
40872;BME280;26591;43.264;26.940;2023-03-26T14:58:38;98194.84;;;18.15;35.02
40872;BME280;26591;43.264;26.940;2023-03-26T15:12:42;98195.31;;;17.52;37.02
40872;BME280;26591;43.264;26.940;2023-03-26T15:37:50;98212.75;;;17.67;37.84
40872;BME280;26591;43.264;26.940;2023-03-26T15:45:30;98213.09;;;17.82;38.61
40872;BME280;26591;43.264;26.940;2023-03-26T15:54:08;98210.56;;;17.64;37.64
40872;BME280;26591;43.264;26.940;2023-03-26T16:01:58;98219.97;;;17.31;39.24
40872;BME280;26591;43.264;26.940;2023-03-26T16:44:32;98240.88;;;18.82;36.45
40872;BME280;26591;43.264;26.940;2023-03-26T16:47:18;98238.97;;;18.65;37.42
40872;BME280;26591;43.264;26.940;2023-03-26T16:50:07;98247.75;;;18.49;37.74
40872;BME280;26591;43.264;26.940;2023-03-26T16:52:49;98252.19;;;18.31;39.20
40872;BME280;26591;43.264;26.940;2023-03-26T16:55:27;98258.34;;;18.32;41.32
40872;BME280;26591;43.264;26.940;2023-03-26T17:00:46;98261.53;;;17.93;37.68
40872;BME280;26591;43.264;26.940;2023-03-26T17:03:33;98262.84;;;17.24;38.36
40872;BME280;26591;43.264;26.940;2023-03-26T17:06:25;98270.81;;;17.12;38.36
40872;BME280;26591;43.264;26.940;2023-03-26T17:19:57;98279.94;;;16.37;39.42
40872;BME280;26591;43.264;26.940;2023-03-26T17:25:31;98290.13;;;16.65;39.01
40872;BME280;26591;43.264;26.940;2023-03-26T17:28:18;98286.19;;;16.30;38.55
40872;BME280;26591;43.264;26.940;2023-03-26T17:33:43;98298.00;;;15.97;39.41
40872;BME280;26591;43.264;26.940;2023-03-26T17:41:12;98299.84;;;15.71;39.65
40872;BME280;26591;43.264;26.940;2023-03-26T17:43:48;98310.00;;;15.56;40.01
40872;BME280;26591;43.264;26.940;2023-03-26T17:49:16;98321.31;;;15.51;40.24
40872;BME280;26591;43.264;26.940;2023-03-26T17:51:50;98323.81;;;15.46;40.21
40872;BME280;26591;43.264;26.940;2023-03-26T17:57:02;98336.06;;;15.54;50.66
40872;BME280;26591;43.264;26.940;2023-03-26T17:59:30;98330.31;;;15.82;46.46
40872;BME280;26591;43.264;26.940;2023-03-26T18:01:59;98324.69;;;15.65;41.14
40872;BME280;26591;43.264;26.940;2023-03-26T18:04:35;98323.78;;;15.14;41.02
40872;BME280;26591;43.264;26.940;2023-03-26T18:15:43;98330.13;;;14.68;41.14
40872;BME280;26591;43.264;26.940;2023-03-26T18:18:17;98327.88;;;14.58;41.57
40872;BME280;26591;43.264;26.940;2023-03-26T18:20:45;98328.78;;;14.25;41.60
40872;BME280;26591;43.264;26.940;2023-03-26T18:23:23;98332.88;;;14.34;41.58
40872;BME280;26591;43.264;26.940;2023-03-26T18:26:09;98327.19;;;14.03;41.51
40872;BME280;26591;43.264;26.940;2023-03-26T18:28:45;98326.72;;;14.20;41.76
40872;BME280;26591;43.264;26.940;2023-03-26T18:31:23;98327.78;;;13.92;40.36
40872;BME280;26591;43.264;26.940;2023-03-26T18:33:54;98330.66;;;14.04;40.49
40872;BME280;26591;43.264;26.940;2023-03-26T18:36:23;98330.84;;;14.16;39.66
40872;BME280;26591;43.264;26.940;2023-03-26T18:38:49;98334.13;;;14.25;40.10
40872;BME280;26591;43.264;26.940;2023-03-26T18:41:23;98332.91;;;14.14;40.02
40872;BME280;26591;43.264;26.940;2023-03-26T18:43:51;98332.25;;;14.25;40.19
40872;BME280;26591;43.264;26.940;2023-03-26T18:46:19;98330.22;;;14.21;40.02
40872;BME280;26591;43.264;26.940;2023-03-26T18:48:47;98336.53;;;14.46;41.57
40872;BME280;26591;43.264;26.940;2023-03-26T18:51:12;98332.81;;;14.68;40.24
40872;BME280;26591;43.264;26.940;2023-03-26T18:53:48;98329.50;;;14.72;40.36
40872;BME280;26591;43.264;26.940;2023-03-26T18:56:35;98325.72;;;14.93;40.32
40872;BME280;26591;43.264;26.940;2023-03-26T18:59:06;98328.28;;;15.20;44.46
40872;BME280;26591;43.264;26.940;2023-03-26T19:01:41;98326.84;;;15.18;42.96
40872;BME280;26591;43.264;26.940;2023-03-26T19:04:15;98326.38;;;15.92;43.74
40872;BME280;26591;43.264;26.940;2023-03-26T19:06:42;98329.19;;;16.22;40.07
40872;BME280;26591;43.264;26.940;2023-03-26T19:09:08;98340.72;;;16.60;39.40
40872;BME280;26591;43.264;26.940;2023-03-26T19:11:39;98323.34;;;16.51;38.84
40872;BME280;26591;43.264;26.940;2023-03-26T19:14:13;98320.50;;;14.73;40.35
40872;BME280;26591;43.264;26.940;2023-03-26T19:16:39;98322.53;;;14.71;39.84
40872;BME280;26591;43.264;26.940;2023-03-26T19:19:14;98333.00;;;15.18;40.35
40872;BME280;26591;43.264;26.940;2023-03-26T19:21:41;98321.03;;;14.89;40.05
40872;BME280;26591;43.264;26.940;2023-03-26T19:24:07;98323.78;;;14.62;40.37
40872;BME280;26591;43.264;26.940;2023-03-26T19:26:33;98326.03;;;14.65;40.43